createdAt,value
2017-12-16T00:02:00.694Z,5.12
2017-12-16T00:04:29.298Z,5.57
2017-12-16T00:06:58.418Z,4.20
2017-12-16T00:09:26.632Z,4.30
2017-12-16T00:11:54.812Z,4.60
2017-12-16T00:14:23.186Z,4.47
2017-12-16T00:16:51.363Z,5.35
2017-12-16T00:19:19.553Z,4.55
2017-12-16T00:21:47.660Z,3.95
2017-12-16T00:24:15.841Z,5.07
2017-12-16T00:26:44.143Z,3.83
2017-12-16T00:29:13.412Z,5.22
2017-12-16T00:31:41.589Z,4.55
2017-12-16T00:34:09.902Z,3.50
2017-12-16T00:36:38.087Z,4.05
2017-12-16T00:39:06.361Z,4.00
2017-12-16T00:41:34.726Z,3.72
2017-12-16T00:44:03.518Z,3.60
2017-12-16T00:46:31.986Z,4.10
2017-12-16T00:49:00.483Z,5.57
2017-12-16T00:51:28.760Z,4.25
2017-12-16T00:53:57.754Z,4.60
2017-12-16T00:56:26.092Z,4.20
2017-12-16T00:58:54.313Z,4.93
2017-12-16T01:01:22.609Z,5.72
2017-12-16T01:03:51.776Z,4.90
2017-12-16T01:06:20.047Z,4.55
2017-12-16T01:08:48.318Z,5.00
2017-12-16T01:11:16.603Z,5.90
2017-12-16T01:13:44.854Z,4.57
2017-12-16T01:16:12.948Z,4.65
2017-12-16T01:18:41.112Z,4.10
2017-12-16T01:21:09.387Z,3.53
2017-12-16T01:23:37.549Z,3.10
2017-12-16T01:26:06.654Z,2.60
2017-12-16T01:28:34.938Z,2.80
2017-12-16T01:31:03.089Z,2.72
2017-12-16T01:33:43.168Z,2.80
2017-12-16T01:36:22.805Z,2.47
2017-12-16T01:38:51.307Z,2.55
2017-12-16T01:41:20.367Z,2.70
2017-12-16T01:43:48.668Z,2.62
2017-12-16T01:46:17.741Z,2.80
2017-12-16T01:48:46.134Z,3.12
2017-12-16T01:51:14.413Z,2.42
2017-12-16T01:53:42.487Z,3.60
2017-12-16T01:56:10.574Z,2.90
2017-12-16T01:58:39.634Z,2.80
2017-12-16T02:01:08.026Z,3.40
2017-12-16T02:03:36.496Z,3.00
2017-12-16T02:06:04.871Z,3.30
2017-12-16T02:08:33.265Z,3.35
2017-12-16T02:11:01.293Z,3.30
2017-12-16T02:13:29.494Z,3.58
2017-12-16T02:15:57.972Z,3.70
2017-12-16T02:18:26.637Z,3.75
2017-12-16T02:20:54.916Z,4.37
2017-12-16T02:23:23.474Z,4.15
2017-12-16T02:25:51.850Z,3.90
2017-12-16T02:28:20.059Z,3.05
2017-12-16T02:30:48.215Z,3.40
2017-12-16T02:33:16.697Z,3.40
2017-12-16T02:35:45.061Z,3.45
2017-12-16T02:38:13.479Z,3.50
2017-12-16T02:40:41.726Z,3.62
2017-12-16T02:43:09.814Z,3.10
2017-12-16T02:45:38.094Z,3.80
2017-12-16T02:48:06.165Z,3.60
2017-12-16T02:50:34.327Z,3.22
2017-12-16T02:53:02.708Z,3.70
2017-12-16T02:55:31.012Z,5.85
2017-12-16T02:58:00.197Z,3.25
2017-12-16T03:00:28.658Z,3.60
2017-12-16T03:02:57.069Z,3.28
2017-12-16T03:05:26.272Z,3.10
2017-12-16T03:07:55.346Z,4.07
2017-12-16T03:10:23.700Z,3.60
2017-12-16T03:12:51.994Z,3.83
2017-12-16T03:15:20.360Z,4.00
2017-12-16T03:17:48.527Z,3.60
2017-12-16T03:20:16.704Z,3.45
2017-12-16T03:22:45.085Z,3.60
2017-12-16T03:25:13.642Z,4.50
2017-12-16T03:27:41.959Z,4.30
2017-12-16T03:30:10.363Z,4.00
2017-12-16T03:32:39.604Z,3.85
2017-12-16T03:35:07.956Z,4.20
2017-12-16T03:37:36.193Z,4.18
2017-12-16T03:40:04.312Z,4.90
2017-12-16T03:42:32.771Z,3.97
2017-12-16T03:45:01.782Z,4.32
2017-12-16T03:47:30.103Z,3.97
2017-12-16T03:49:58.358Z,3.50
2017-12-16T03:52:26.938Z,2.42
2017-12-16T03:54:55.131Z,2.85
2017-12-16T03:57:23.272Z,2.50
2017-12-16T03:59:51.482Z,2.40
2017-12-16T04:02:20.691Z,3.70
2017-12-16T04:04:48.735Z,2.40
2017-12-16T04:07:17.232Z,1.90
2017-12-16T04:09:45.292Z,2.05
2017-12-16T04:12:13.653Z,2.20
2017-12-16T04:14:41.830Z,2.28
2017-12-16T04:17:09.811Z,1.90
2017-12-16T04:19:38.182Z,2.08
2017-12-16T04:22:06.566Z,2.30
2017-12-16T04:24:34.872Z,2.40
2017-12-16T04:27:03.947Z,2.87
2017-12-16T04:29:32.066Z,2.72
2017-12-16T04:32:00.273Z,2.72
2017-12-16T04:34:28.512Z,2.83
2017-12-16T04:36:56.910Z,2.50
2017-12-16T04:39:25.123Z,2.70
2017-12-16T04:41:53.406Z,2.80
2017-12-16T04:44:22.652Z,2.50
2017-12-16T04:46:50.660Z,3.17
2017-12-16T04:49:19.025Z,2.87
2017-12-16T04:51:47.215Z,2.80
2017-12-16T04:54:15.290Z,2.95
2017-12-16T04:56:44.306Z,3.53
2017-12-16T04:59:13.245Z,3.50
2017-12-16T05:01:41.830Z,3.17
2017-12-16T05:04:10.129Z,2.67
2017-12-16T05:06:38.436Z,2.75
2017-12-16T05:09:06.660Z,3.40
2017-12-16T05:11:35.151Z,3.35
2017-12-16T05:14:03.553Z,3.35
2017-12-16T05:16:32.593Z,3.20
2017-12-16T05:19:00.783Z,3.03
2017-12-16T05:21:28.986Z,2.83
2017-12-16T05:23:58.113Z,3.47
2017-12-16T05:26:26.530Z,3.50
2017-12-16T05:28:54.836Z,2.70
2017-12-16T05:31:22.998Z,3.03
2017-12-16T05:33:51.255Z,2.80
2017-12-16T05:36:19.508Z,3.40
2017-12-16T05:38:47.837Z,3.00
2017-12-16T05:41:16.885Z,3.30
2017-12-16T05:43:45.098Z,3.67
2017-12-16T05:46:13.356Z,3.80
2017-12-16T05:48:41.468Z,4.47
2017-12-16T05:51:10.543Z,2.87
2017-12-16T05:53:39.584Z,3.20
2017-12-16T05:56:07.782Z,2.90
2017-12-16T05:58:36.468Z,3.15
2017-12-16T06:01:04.773Z,2.75
2017-12-16T06:03:34.156Z,3.35
2017-12-16T06:06:02.828Z,3.20
2017-12-16T06:08:31.128Z,3.30
2017-12-16T06:10:59.968Z,3.70
2017-12-16T06:13:28.308Z,3.40
2017-12-16T06:15:57.448Z,3.47
2017-12-16T06:18:25.788Z,9.52
2017-12-16T06:20:55.128Z,4.00
2017-12-16T06:23:23.648Z,3.80
2017-12-16T06:25:53.148Z,4.68
2017-12-16T06:28:21.648Z,4.45
2017-12-16T06:30:50.827Z,4.35
2017-12-16T06:33:19.068Z,3.72
2017-12-16T06:35:47.648Z,4.43
2017-12-16T06:38:16.149Z,5.18
2017-12-16T06:40:44.508Z,3.80
2017-12-16T06:43:12.908Z,4.15
2017-12-16T06:45:41.108Z,4.20
2017-12-16T06:48:10.288Z,5.12
2017-12-16T06:50:38.528Z,5.20
2017-12-16T06:53:06.728Z,4.05
2017-12-16T06:55:35.052Z,4.47
2017-12-16T06:58:03.668Z,3.80
2017-12-16T07:00:32.048Z,5.30
2017-12-16T07:03:00.766Z,3.60
2017-12-16T07:05:30.066Z,3.75
2017-12-16T07:07:59.468Z,4.70
2017-12-16T07:10:28.767Z,3.20
2017-12-16T07:12:57.366Z,3.80
2017-12-16T07:15:26.746Z,3.90
2017-12-16T07:17:55.234Z,4.68
2017-12-16T07:20:24.606Z,5.03
2017-12-16T07:22:53.089Z,4.03
2017-12-16T07:25:21.766Z,4.40
2017-12-16T07:27:50.346Z,5.18
2017-12-16T07:30:18.826Z,4.25
2017-12-16T07:32:47.546Z,4.93
2017-12-16T07:35:15.946Z,4.80
2017-12-16T07:37:44.847Z,4.15
2017-12-16T07:40:13.086Z,5.15
2017-12-16T07:42:41.286Z,5.40
2017-12-16T07:45:09.526Z,4.50
2017-12-16T07:47:37.706Z,5.25
2017-12-16T07:50:05.946Z,6.50
2017-12-16T07:52:34.166Z,6.80
2017-12-16T07:55:03.446Z,6.28
2017-12-16T07:57:31.627Z,10.68
2017-12-16T07:59:59.786Z,7.37
2017-12-16T08:02:28.167Z,7.03
2017-12-16T08:04:56.653Z,5.90
2017-12-16T08:07:24.726Z,7.03
2017-12-16T08:09:52.866Z,7.47
2017-12-16T08:12:21.266Z,7.85
2017-12-16T08:14:51.087Z,7.18
2017-12-16T08:17:20.386Z,6.70
2017-12-16T08:19:48.996Z,7.40
2017-12-16T08:22:18.275Z,5.93
2017-12-16T08:24:47.634Z,8.48
2017-12-16T08:27:15.795Z,7.03
2017-12-16T08:29:44.214Z,7.78
2017-12-16T08:32:12.475Z,7.53
2017-12-16T08:34:40.914Z,8.65
2017-12-16T08:37:09.256Z,9.25
2017-12-16T08:39:37.634Z,10.40
2017-12-16T08:42:06.714Z,9.35
2017-12-16T08:44:34.854Z,9.10
2017-12-16T08:47:03.074Z,12.37
2017-12-16T08:49:31.553Z,9.05
2017-12-16T08:51:59.916Z,8.65
2017-12-16T08:54:28.115Z,10.13
2017-12-16T08:56:57.195Z,9.75
2017-12-16T08:59:26.999Z,10.00
2017-12-16T09:01:55.274Z,11.12
2017-12-16T09:04:23.754Z,10.75
2017-12-16T09:06:52.154Z,12.90
2017-12-16T09:09:21.054Z,13.18
2017-12-16T09:11:50.334Z,13.23
2017-12-16T09:14:18.694Z,12.88
2017-12-16T09:16:47.022Z,14.15
2017-12-16T09:19:15.125Z,13.20
2017-12-16T09:21:43.566Z,13.75
2017-12-16T09:24:11.806Z,17.77
2017-12-16T09:26:40.273Z,14.68
2017-12-16T09:29:08.470Z,15.15
2017-12-16T09:31:37.050Z,13.07
2017-12-16T09:34:05.210Z,11.65
2017-12-16T09:36:33.728Z,12.15
2017-12-16T09:39:02.893Z,9.30
2017-12-16T09:41:31.364Z,13.52
2017-12-16T09:43:59.957Z,10.95
2017-12-16T09:46:27.902Z,10.98
2017-12-16T09:48:55.867Z,11.07
2017-12-16T09:51:23.843Z,11.43
2017-12-16T09:53:52.723Z,11.35
2017-12-16T09:56:21.622Z,12.80
2017-12-16T09:58:49.706Z,12.57
2017-12-16T10:01:18.156Z,12.80
2017-12-16T10:03:46.433Z,13.57
2017-12-16T10:06:15.054Z,13.35
2017-12-16T10:08:44.353Z,15.65
2017-12-16T10:11:12.832Z,13.02
2017-12-16T10:13:40.953Z,13.38
2017-12-16T10:16:09.177Z,19.52
2017-12-16T10:18:38.473Z,12.90
2017-12-16T10:21:07.193Z,12.15
2017-12-16T10:23:36.333Z,11.20
2017-12-16T10:26:04.934Z,10.95
2017-12-16T10:28:33.532Z,10.60
2017-12-16T10:31:03.046Z,26.80
2017-12-16T10:33:32.026Z,10.80
2017-12-16T10:36:01.206Z,12.63
2017-12-16T10:38:29.427Z,11.60
2017-12-16T10:40:57.655Z,10.10
2017-12-16T10:43:26.254Z,9.75
2017-12-16T10:45:55.225Z,9.52
2017-12-16T10:48:23.765Z,10.05
2017-12-16T10:50:52.229Z,9.02
2017-12-16T10:53:21.265Z,10.05
2017-12-16T10:55:49.666Z,10.75
2017-12-16T10:58:18.256Z,11.15
2017-12-16T11:00:51.895Z,11.50
2017-12-16T11:03:20.352Z,10.07
2017-12-16T11:05:49.532Z,11.02
2017-12-16T11:08:17.812Z,12.25
2017-12-16T11:10:46.291Z,11.57
2017-12-16T11:13:14.351Z,10.95
2017-12-16T11:15:42.652Z,10.57
2017-12-16T11:18:12.051Z,15.38
2017-12-16T11:20:41.471Z,12.45
2017-12-16T11:23:09.837Z,12.60
2017-12-16T11:25:39.231Z,12.18
2017-12-16T11:28:08.792Z,12.35
2017-12-16T11:30:37.315Z,14.25
2017-12-16T11:33:06.612Z,15.02
2017-12-16T11:35:35.931Z,14.73
2017-12-16T11:38:04.391Z,13.98
2017-12-16T11:40:33.571Z,13.50
2017-12-16T11:43:02.319Z,14.18
2017-12-16T11:45:30.731Z,14.45
2017-12-16T11:47:59.765Z,15.80
2017-12-16T11:50:28.837Z,13.68
2017-12-16T11:52:57.112Z,13.75
2017-12-16T11:55:25.611Z,14.45
2017-12-16T11:57:54.749Z,17.42
2017-12-16T12:00:23.129Z,22.83
2017-12-16T12:02:51.630Z,19.35
2017-12-16T12:05:20.009Z,17.12
2017-12-16T12:07:48.490Z,17.77
2017-12-16T12:10:17.069Z,19.17
2017-12-16T12:12:45.232Z,17.12
2017-12-16T12:15:13.790Z,18.75
2017-12-16T12:17:42.329Z,16.25
2017-12-16T12:20:11.890Z,15.48
2017-12-16T12:22:40.290Z,14.35
2017-12-16T12:25:08.889Z,14.32
2017-12-16T12:27:37.209Z,12.90
2017-12-16T12:30:05.590Z,11.90
2017-12-16T12:32:34.211Z,10.65
2017-12-16T12:35:02.811Z,11.93
2017-12-16T12:37:32.092Z,10.90
2017-12-16T12:40:00.513Z,10.55
2017-12-16T12:42:29.369Z,11.65
2017-12-16T12:44:57.650Z,20.45
2017-12-16T12:47:26.250Z,11.43
2017-12-16T12:49:55.630Z,10.20
2017-12-16T12:52:23.849Z,10.20
2017-12-16T12:54:52.209Z,8.98
2017-12-16T12:57:21.171Z,9.00
2017-12-16T12:59:49.649Z,8.88
2017-12-16T13:02:18.029Z,9.10
2017-12-16T13:04:46.411Z,13.05
2017-12-16T13:07:14.489Z,9.85
2017-12-16T13:09:42.950Z,10.80
2017-12-16T13:12:11.228Z,12.20
2017-12-16T13:14:39.609Z,9.68
2017-12-16T13:17:07.889Z,12.90
2017-12-16T13:19:36.578Z,13.35
2017-12-16T13:22:04.850Z,14.80
2017-12-16T13:24:33.190Z,14.70
2017-12-16T13:27:01.349Z,14.38
2017-12-16T13:29:29.889Z,15.05
2017-12-16T13:31:59.410Z,18.02
2017-12-16T13:34:28.813Z,22.15
2017-12-16T13:36:58.152Z,18.45
2017-12-16T13:39:26.910Z,16.90
2017-12-16T13:41:55.449Z,16.15
2017-12-16T13:44:24.009Z,17.75
2017-12-16T13:46:52.351Z,14.70
2017-12-16T13:49:20.870Z,15.45
2017-12-16T13:51:49.390Z,14.87
2017-12-16T13:54:18.779Z,13.23
2017-12-16T13:56:47.029Z,12.80
2017-12-16T13:59:15.690Z,17.75
2017-12-16T14:01:44.229Z,15.73
2017-12-16T14:04:12.428Z,15.60
2017-12-16T14:06:40.949Z,15.55
2017-12-16T14:09:09.549Z,13.90
2017-12-16T14:11:37.810Z,14.68
2017-12-16T14:14:06.210Z,12.27
2017-12-16T14:16:34.711Z,13.30
2017-12-16T14:19:03.949Z,12.37
2017-12-16T14:21:32.191Z,13.55
2017-12-16T14:24:01.571Z,11.05
2017-12-16T14:26:29.909Z,16.12
2017-12-16T14:28:59.471Z,5.60
2017-12-16T14:31:28.670Z,7.00
2017-12-16T14:33:57.849Z,7.55
2017-12-16T14:36:26.009Z,9.20
2017-12-16T14:38:54.310Z,6.75
2017-12-16T14:41:23.929Z,6.37
2017-12-16T14:43:52.630Z,8.27
2017-12-16T14:46:21.069Z,6.97
2017-12-16T14:48:49.749Z,7.05
2017-12-16T14:51:18.049Z,8.02
2017-12-16T14:53:47.530Z,7.00
2017-12-16T14:56:16.110Z,8.45
2017-12-16T14:58:44.552Z,7.10
2017-12-16T15:01:13.170Z,7.90
2017-12-16T15:03:41.569Z,7.62
2017-12-16T15:06:10.849Z,10.48
2017-12-16T15:08:39.309Z,8.43
2017-12-16T15:11:07.909Z,8.23
2017-12-16T15:13:36.329Z,7.65
2017-12-16T15:16:04.876Z,6.07
2017-12-16T15:18:33.129Z,12.40
2017-12-16T15:21:01.629Z,8.68
2017-12-16T15:23:30.109Z,8.57
2017-12-16T15:25:58.352Z,12.07
2017-12-16T15:28:26.609Z,8.80
2017-12-16T15:30:55.129Z,9.25
2017-12-16T15:33:23.510Z,36.03
2017-12-16T15:35:51.609Z,7.53
2017-12-16T15:38:20.929Z,7.15
2017-12-16T15:40:49.050Z,5.70
2017-12-16T15:43:17.329Z,6.80
2017-12-16T15:45:45.509Z,8.60
2017-12-16T15:48:13.789Z,8.15
2017-12-16T15:50:41.850Z,9.65
2017-12-16T15:53:10.150Z,10.57
2017-12-16T15:55:39.470Z,8.77
2017-12-16T15:58:08.109Z,8.18
2017-12-16T16:00:36.729Z,7.68
2017-12-16T16:03:05.869Z,10.85
2017-12-16T16:05:34.148Z,17.05
2017-12-16T16:08:02.770Z,8.30
2017-12-16T16:10:32.178Z,6.50
2017-12-16T16:13:01.656Z,8.05
2017-12-16T16:15:30.449Z,12.05
2017-12-16T16:17:58.949Z,57.33
2017-12-16T16:20:28.288Z,13.62
2017-12-16T16:22:56.809Z,14.35
2017-12-16T16:25:25.048Z,13.70
2017-12-16T16:27:53.669Z,13.60
2017-12-16T16:30:21.949Z,12.30
2017-12-16T16:32:51.249Z,11.93
2017-12-16T16:35:20.330Z,15.95
2017-12-16T16:37:48.911Z,14.45
2017-12-16T16:40:17.228Z,12.50
2017-12-16T16:42:45.548Z,17.15
2017-12-16T16:45:14.069Z,9.55
2017-12-16T16:47:43.248Z,8.35
2017-12-16T16:50:11.629Z,10.13
2017-12-16T16:52:40.590Z,9.57
2017-12-16T16:55:08.888Z,8.45
2017-12-16T16:57:37.270Z,8.45
2017-12-16T17:00:05.849Z,9.50
2017-12-16T17:02:34.731Z,8.18
2017-12-16T17:05:02.909Z,8.70
2017-12-16T17:07:31.451Z,7.78
2017-12-16T17:10:00.049Z,8.50
2017-12-16T17:12:28.670Z,9.48
2017-12-16T17:14:57.128Z,7.95
2017-12-16T17:17:25.731Z,8.18
2017-12-16T17:19:55.129Z,9.20
2017-12-16T17:22:23.629Z,25.20
2017-12-16T17:24:52.890Z,7.80
2017-12-16T17:27:21.508Z,7.97
2017-12-16T17:29:50.990Z,8.43
2017-12-16T17:32:19.269Z,10.35
2017-12-16T17:34:47.668Z,13.57
2017-12-16T17:37:16.428Z,10.00
2017-12-16T17:39:44.730Z,11.68
2017-12-16T17:42:13.770Z,11.88
2017-12-16T17:44:42.409Z,13.25
2017-12-16T17:47:11.830Z,12.98
2017-12-16T17:49:40.249Z,12.23
2017-12-16T17:52:08.777Z,13.18
2017-12-16T17:54:38.051Z,9.55
2017-12-16T17:57:06.430Z,10.52
2017-12-16T17:59:34.809Z,10.50
2017-12-16T18:02:03.390Z,12.75
2017-12-16T18:04:31.770Z,13.30
2017-12-16T18:07:00.129Z,11.35
2017-12-16T18:09:28.815Z,8.80
2017-12-16T18:11:57.009Z,7.35
2017-12-16T18:14:25.296Z,10.57
2017-12-16T18:16:54.170Z,9.55
2017-12-16T18:19:22.750Z,10.18
2017-12-16T18:21:51.229Z,14.87
2017-12-16T18:24:19.629Z,8.90
2017-12-16T18:26:49.609Z,7.43
2017-12-16T18:29:18.311Z,7.37
2017-12-16T18:31:46.749Z,7.95
2017-12-16T18:34:15.349Z,7.10
2017-12-16T18:36:43.851Z,10.35
2017-12-16T18:39:12.385Z,11.80
2017-12-16T18:41:41.010Z,11.80
2017-12-16T18:44:09.489Z,13.75
2017-12-16T18:46:37.546Z,7.95
2017-12-16T18:49:05.905Z,7.03
2017-12-16T18:51:34.157Z,6.72
2017-12-16T18:54:02.496Z,7.05
2017-12-16T18:56:30.775Z,7.47
2017-12-16T18:58:59.025Z,7.20
2017-12-16T19:01:27.335Z,8.90
2017-12-16T19:03:56.735Z,9.10
2017-12-16T19:06:26.195Z,8.70
2017-12-16T19:08:54.815Z,9.20
2017-12-16T19:11:23.395Z,9.18
2017-12-16T19:13:51.895Z,9.85
2017-12-16T19:16:20.975Z,10.82
2017-12-16T19:18:49.163Z,11.07
2017-12-16T19:21:18.555Z,9.15
2017-12-16T19:23:47.896Z,10.77
2017-12-16T19:26:16.414Z,11.38
2017-12-16T19:28:44.896Z,7.72
2017-12-16T19:31:13.259Z,8.70
2017-12-16T19:33:41.555Z,7.85
2017-12-16T19:36:10.036Z,8.45
2017-12-16T19:38:39.136Z,9.50
2017-12-16T19:41:07.315Z,9.52
2017-12-16T19:43:36.708Z,9.05
2017-12-16T19:46:04.874Z,8.55
2017-12-16T19:48:33.158Z,10.32
2017-12-16T19:51:01.656Z,10.35
2017-12-16T19:53:30.635Z,9.23
2017-12-16T19:55:59.835Z,9.45
2017-12-16T19:58:28.935Z,8.68
2017-12-16T20:00:57.817Z,9.65
2017-12-16T20:03:26.690Z,9.75
2017-12-16T20:05:55.493Z,8.15
2017-12-16T20:08:24.813Z,9.50
2017-12-16T20:10:54.034Z,10.07
2017-12-16T20:13:22.553Z,10.57
2017-12-16T20:15:50.935Z,10.25
2017-12-16T20:18:19.076Z,9.55
2017-12-16T20:20:47.914Z,11.00
2017-12-16T20:23:17.193Z,10.80
2017-12-16T20:25:45.714Z,10.55
2017-12-16T20:28:14.933Z,11.75
2017-12-16T20:30:43.433Z,14.52
2017-12-16T20:33:12.513Z,12.23
2017-12-16T20:35:40.815Z,12.25
2017-12-16T20:38:09.013Z,13.52
2017-12-16T20:40:37.275Z,14.13
2017-12-16T20:43:05.655Z,14.25
2017-12-16T20:45:34.132Z,14.05
2017-12-16T20:48:02.413Z,12.90
2017-12-16T20:50:30.967Z,12.88
2017-12-16T20:52:59.667Z,12.75
2017-12-16T20:55:28.074Z,12.73
2017-12-16T20:57:56.966Z,12.63
2017-12-16T21:00:26.228Z,12.35
2017-12-16T21:02:54.887Z,13.70
2017-12-16T21:05:23.087Z,13.80
2017-12-16T21:07:51.488Z,13.85
2017-12-16T21:10:19.827Z,20.45
2017-12-16T21:12:48.227Z,14.60
2017-12-16T21:15:16.687Z,14.15
2017-12-16T21:17:44.927Z,15.90
2017-12-16T21:20:13.287Z,19.62
2017-12-16T21:22:42.667Z,16.87
2017-12-16T21:25:10.947Z,12.82
2017-12-16T21:27:39.329Z,14.70
2017-12-16T21:30:08.439Z,14.45
2017-12-16T21:32:37.507Z,13.73
2017-12-16T21:35:05.789Z,13.25
2017-12-16T21:37:34.067Z,13.30
2017-12-16T21:40:03.067Z,13.70
2017-12-16T21:42:32.328Z,12.50
2017-12-16T21:45:01.070Z,13.65
2017-12-16T21:47:30.447Z,15.18
2017-12-16T21:49:58.975Z,13.95
2017-12-16T21:52:27.307Z,12.15
2017-12-16T21:54:55.787Z,11.40
2017-12-16T21:57:24.215Z,11.10
2017-12-16T21:59:52.547Z,14.15
2017-12-16T22:02:22.047Z,11.82
2017-12-16T22:04:50.546Z,14.77
2017-12-16T22:07:19.708Z,12.60
2017-12-16T22:09:48.388Z,11.27
2017-12-16T22:12:16.767Z,11.88
2017-12-16T22:14:45.087Z,12.80
2017-12-16T22:17:13.527Z,12.37
2017-12-16T22:19:41.730Z,11.55
2017-12-16T22:22:10.887Z,12.73
2017-12-16T22:24:38.927Z,12.10
2017-12-16T22:27:08.131Z,12.37
2017-12-16T22:29:36.388Z,13.07
2017-12-16T22:32:04.727Z,13.35
2017-12-16T22:34:32.907Z,10.70
2017-12-16T22:37:02.187Z,12.65
2017-12-16T22:39:30.487Z,12.55
2017-12-16T22:41:59.767Z,11.90
2017-12-16T22:44:28.168Z,11.63
2017-12-16T22:46:57.347Z,13.20
2017-12-16T22:49:25.736Z,13.15
2017-12-16T22:51:53.887Z,12.90
2017-12-16T22:54:22.167Z,12.77
2017-12-16T22:56:50.847Z,12.45
2017-12-16T22:59:19.366Z,15.13
2017-12-16T23:01:47.727Z,17.80
2017-12-16T23:04:17.229Z,14.80
2017-12-16T23:06:45.608Z,17.12
2017-12-16T23:09:14.887Z,17.87
2017-12-16T23:11:43.607Z,19.00
2017-12-16T23:14:12.566Z,16.83
2017-12-16T23:16:40.774Z,17.23
2017-12-16T23:19:10.193Z,14.18
2017-12-16T23:21:38.413Z,12.27
2017-12-16T23:24:06.933Z,12.82
2017-12-16T23:26:36.213Z,13.05
2017-12-16T23:29:05.213Z,11.60
2017-12-16T23:31:34.293Z,11.55
2017-12-16T23:34:02.554Z,14.00
2017-12-16T23:36:30.833Z,11.30
2017-12-16T23:38:59.153Z,11.05
2017-12-16T23:41:27.533Z,10.93
2017-12-16T23:43:56.213Z,12.93
2017-12-16T23:46:24.773Z,10.43
2017-12-16T23:48:53.933Z,11.85
2017-12-16T23:51:22.853Z,10.10
2017-12-16T23:53:51.173Z,10.13
2017-12-16T23:56:19.812Z,10.90
2017-12-16T23:58:48.313Z,11.90
